Alfred, Maine
Current Conditions -  °F | °C
As of 3:15 PM on Wednesday 28 Jan 2015 (Local Time) from KSFM Reporting Station
Clear Clear  
Wind Chill: -10°   Ceiling: Unl
Heat Index: -4°   Visibility: 10mi
Dew Point: -13°   Wind: 10mph
Humidity: 50%   Direction: 290°WNW
Pressure: 29.97"   Gusts: NA
Location:  43.48°N, 70.72°W
Report Text: KSFM 282015Z AUTO 29009KT 10SM CLR M04/M13 A2997 RMK AO1 P0001
Loading
Personal Weather Stations






























Interactive Weather Map New forecast layout! Learn more

10-Day Weather Forecast

Advertisements
Track Severe Weather on mobile